Terminal Aerodrome Forecast
Issued by NWS

Home | Current Version | Previous Version | Text Only | Print | Product List | Glossary On
Versions: 1 2 3 4 5 6 7 8 9 10 11 12
000
FTUS46 KSTO 171100
TAFSCK
TAF
KSCK 171120Z 1712/1812 VRB05KT P6SM FEW250
     FM172000 27010KT P6SM FEW250
     FM172300 29014G20KT P6SM SCT200
     FM180400 33008KT P6SM SCT100 BKN200=

USA.gov is the U.S. government's official web portal to all federal, state and local government web resources and services.